Time;durP1;ratioP1;P1;durP2;ratioP2;P2;SDS_P1;SDS_P2;PMS_P1;PMS_P2;Temp;Humidity;BMP_temperature;BMP_pressure;BME280_temperature;BME280_humidity;BME280_pressure;Samples;Min_cycle;Max_cycle;Signal;HPM_P1;HPM_P2
2022/05/23 00:01:46;;;;;;;8.90;3.47;;;12.20;1.00;;;;;;4974741;28;20432;-51
2022/05/23 00:04:12;;;;;;;6.87;3.30;;;12.20;1.00;;;;;;4974648;28;20196;-51
2022/05/23 00:06:38;;;;;;;6.73;3.30;;;12.20;1.00;;;;;;4974838;28;20188;-51
2022/05/23 00:09:04;;;;;;;8.50;3.70;;;12.20;1.00;;;;;;4974344;28;20228;-51
2022/05/23 00:11:30;;;;;;;6.53;3.17;;;12.10;1.00;;;;;;4974547;28;20244;-52
2022/05/23 00:13:55;;;;;;;7.13;4.13;;;12.00;1.00;;;;;;4974546;28;20424;-51
2022/05/23 00:16:24;;;;;;;5.03;2.97;;;12.00;1.00;;;;;;4974514;28;20193;-51
2022/05/23 00:18:50;;;;;;;7.80;3.43;;;12.00;1.00;;;;;;4976253;28;20272;-51
2022/05/23 00:21:17;;;;;;;8.20;3.50;;;12.10;1.00;;;;;;4973920;28;20511;-51
2022/05/23 00:23:43;;;;;;;9.97;3.60;;;12.00;1.00;;;;;;4974489;28;20189;-51
2022/05/23 00:26:11;;;;;;;6.97;3.23;;;12.00;1.00;;;;;;4974330;28;20428;-51
2022/05/23 00:28:40;;;;;;;9.23;3.70;;;11.90;1.00;;;;;;4974472;28;20200;-56
2022/05/23 00:31:06;;;;;;;5.10;3.17;;;11.90;1.00;;;;;;4974150;28;20868;-56
2022/05/23 00:36:16;;;;;;;6.10;3.50;;;11.80;1.00;;;;;;4973965;28;20479;-56
2022/05/23 00:38:41;;;;;;;5.73;3.70;;;11.70;1.00;;;;;;4974172;28;21340;-56
2022/05/23 00:44:27;;;;;;;9.57;4.00;;;11.60;1.00;;;;;;4971822;28;20211;-56
2022/05/23 00:46:57;;;;;;;3.90;3.33;;;11.50;1.00;;;;;;4974206;28;20451;-57
2022/05/23 00:49:27;;;;;;;5.50;2.80;;;11.40;1.00;;;;;;4973930;28;20417;-56
2022/05/23 00:51:54;;;;;;;5.10;3.30;;;11.30;1.00;;;;;;4974113;28;20433;-56
2022/05/23 00:54:21;;;;;;;6.20;3.40;;;11.30;1.00;;;;;;4973547;28;20560;-57
2022/05/23 00:56:50;;;;;;;6.07;3.50;;;11.20;1.00;;;;;;4973835;28;20464;-57
2022/05/23 00:59:25;;;;;;;8.87;4.03;;;11.20;1.00;;;;;;4973510;28;20439;-56
2022/05/23 01:01:51;;;;;;;5.50;3.47;;;11.10;6.40;;;;;;4973949;28;20948;-57
2022/05/23 01:04:17;;;;;;;5.53;3.73;;;11.10;13.00;;;;;;4973450;28;20425;-56
2022/05/23 01:06:43;;;;;;;8.20;3.70;;;11.10;39.80;;;;;;4973765;28;20615;-56
2022/05/23 01:09:10;;;;;;;6.87;3.50;;;11.00;31.50;;;;;;4973538;28;20233;-56
2022/05/23 01:11:36;;;;;;;7.23;3.50;;;11.00;21.50;;;;;;4973611;28;20424;-57
2022/05/23 01:14:02;;;;;;;10.07;3.47;;;10.90;81.50;;;;;;4973739;28;20420;-57
2022/05/23 01:16:28;;;;;;;5.10;3.70;;;10.90;99.90;;;;;;4973207;28;20200;-57
2022/05/23 01:18:54;;;;;;;4.50;3.70;;;10.90;99.90;;;;;;4973626;28;21278;-56
2022/05/23 01:21:53;;;;;;;4.07;3.53;;;10.90;99.90;;;;;;4973508;28;20644;-57
2022/05/23 01:24:22;;;;;;;4.70;4.00;;;10.90;99.90;;;;;;4973146;28;20185;-56
2022/05/23 01:26:49;;;;;;;6.20;3.80;;;10.90;99.90;;;;;;4973413;28;20838;-57
2022/05/23 01:29:15;;;;;;;8.93;3.80;;;10.90;99.90;;;;;;4973070;28;20436;-57
2022/05/23 01:31:42;;;;;;;6.53;4.03;;;10.90;99.90;;;;;;4969768;28;20746;-57
2022/05/23 01:34:08;;;;;;;7.87;4.23;;;10.90;99.90;;;;;;4968297;28;20516;-56
2022/05/23 01:36:34;;;;;;;6.87;3.50;;;10.90;99.90;;;;;;4972714;28;20424;-56
2022/05/23 01:39:00;;;;;;;7.27;3.90;;;10.90;99.90;;;;;;4973227;28;20495;-56
2022/05/23 01:41:26;;;;;;;9.37;4.03;;;10.90;99.90;;;;;;4973015;28;20439;-56
2022/05/23 01:43:53;;;;;;;6.73;3.60;;;10.90;99.90;;;;;;4973341;28;20181;-56
2022/05/23 01:46:19;;;;;;;4.53;4.00;;;10.90;99.90;;;;;;4972736;28;20435;-56
2022/05/23 01:48:44;;;;;;;6.03;3.90;;;10.90;99.90;;;;;;4972842;28;20778;-57
2022/05/23 01:51:10;;;;;;;4.87;3.80;;;10.90;99.90;;;;;;4971916;28;20673;-56
2022/05/23 01:53:35;;;;;;;9.80;4.33;;;11.00;99.90;;;;;;4972835;28;20592;-56
2022/05/23 01:56:05;;;;;;;7.20;3.57;;;11.00;99.90;;;;;;4972997;28;20238;-56
2022/05/23 02:01:15;;;;;;;10.60;3.60;;;11.10;99.90;;;;;;4972540;28;20419;-57
2022/05/23 02:03:43;;;;;;;14.13;4.10;;;11.10;99.90;;;;;;4972840;28;20417;-56
2022/05/23 02:06:08;;;;;;;10.20;3.90;;;11.10;99.90;;;;;;4972666;28;21201;-51
2022/05/23 02:08:34;;;;;;;6.03;3.57;;;11.10;99.90;;;;;;4972445;28;20516;-51
2022/05/23 02:10:59;;;;;;;4.87;3.80;;;11.20;99.90;;;;;;4972543;28;20197;-51
2022/05/23 02:13:25;;;;;;;7.53;4.17;;;11.20;99.90;;;;;;4972646;28;20232;-51
2022/05/23 02:15:50;;;;;;;5.83;3.80;;;11.20;99.90;;;;;;4971976;28;20189;-51
2022/05/23 02:18:16;;;;;;;9.07;4.17;;;11.10;99.90;;;;;;4972243;28;20651;-51
2022/05/23 02:20:42;;;;;;;7.83;4.10;;;11.10;99.90;;;;;;4972465;28;20190;-51
2022/05/23 02:23:08;;;;;;;7.97;4.27;;;11.10;99.90;;;;;;4972313;28;20191;-51
2022/05/23 02:25:33;;;;;;;7.40;4.20;;;11.10;99.90;;;;;;4972139;28;20189;-51
2022/05/23 02:27:59;;;;;;;7.70;3.83;;;11.10;99.90;;;;;;4971952;28;20185;-51
2022/05/23 02:30:24;;;;;;;8.50;4.70;;;11.10;99.90;;;;;;4972199;28;20185;-51
2022/05/23 02:32:50;;;;;;;8.60;3.67;;;11.10;99.90;;;;;;4971779;28;20267;-51
2022/05/23 02:35:17;;;;;;;4.87;3.60;;;11.10;99.90;;;;;;4971867;28;20577;-51
2022/05/23 02:37:43;;;;;;;5.60;3.70;;;11.10;99.90;;;;;;4971907;28;20507;-51
2022/05/23 02:40:10;;;;;;;4.93;3.60;;;11.00;99.90;;;;;;4972177;28;20479;-52
2022/05/23 02:42:36;;;;;;;13.00;4.23;;;11.00;99.90;;;;;;4970435;28;20197;-51
2022/05/23 02:45:02;;;;;;;8.17;4.40;;;11.00;99.90;;;;;;4971892;28;20432;-51
2022/05/23 02:47:28;;;;;;;6.67;4.10;;;11.00;99.90;;;;;;4971501;28;20448;-51
2022/05/23 02:49:54;;;;;;;7.30;4.40;;;10.90;99.90;;;;;;4972066;28;20448;-51
2022/05/23 02:52:20;;;;;;;4.80;4.03;;;10.90;99.90;;;;;;4971961;28;21040;-52
2022/05/23 02:54:45;;;;;;;9.03;4.27;;;10.90;99.90;;;;;;4971547;28;20189;-52
2022/05/23 02:57:11;;;;;;;7.47;4.50;;;10.90;99.90;;;;;;4971712;28;20208;-51
2022/05/23 02:59:36;;;;;;;4.33;3.60;;;10.90;99.90;;;;;;4971057;28;20193;-51
2022/05/23 03:04:46;;;;;;;6.70;4.20;;;10.80;99.90;;;;;;4970796;28;20223;-52
2022/05/23 03:07:12;;;;;;;6.03;4.33;;;10.80;99.90;;;;;;4971782;28;20495;-51
2022/05/23 03:09:37;;;;;;;6.10;3.90;;;10.80;99.90;;;;;;4971676;28;20284;-52
2022/05/23 03:12:03;;;;;;;5.80;4.23;;;10.80;99.90;;;;;;4971833;28;20646;-51
2022/05/23 03:14:29;;;;;;;5.67;4.50;;;10.80;99.90;;;;;;4971383;28;20549;-51
2022/05/23 03:17:00;;;;;;;6.00;4.37;;;10.70;99.90;;;;;;4971398;28;20216;-51
2022/05/23 03:19:25;;;;;;;4.73;4.00;;;10.80;99.90;;;;;;4971399;28;20185;-51
2022/05/23 03:27:19;;;;;;;7.00;4.83;;;10.80;99.90;;;;;;4971242;28;20843;-51
2022/05/23 03:29:45;;;;;;;5.90;4.20;;;10.80;99.90;;;;;;4971433;28;20464;-52
2022/05/23 03:32:10;;;;;;;7.73;4.60;;;10.90;99.90;;;;;;4971456;28;20215;-52
2022/05/23 03:34:36;;;;;;;9.97;4.13;;;10.90;99.90;;;;;;4971043;28;20192;-51
2022/05/23 03:37:02;;;;;;;9.13;4.30;;;11.00;99.90;;;;;;4971243;28;20209;-51
2022/05/23 03:39:28;;;;;;;13.57;4.60;;;11.00;99.90;;;;;;4971192;28;20427;-51
2022/05/23 03:41:53;;;;;;;15.07;4.30;;;11.10;96.10;;;;;;4971251;28;20188;-51
2022/05/23 03:44:20;;;;;;;5.13;3.90;;;11.20;22.00;;;;;;4971068;28;20553;-51
2022/05/23 03:46:45;;;;;;;6.00;4.30;;;11.20;1.00;;;;;;4971458;28;20193;-51
2022/05/23 03:49:11;;;;;;;5.10;3.70;;;11.20;1.00;;;;;;4971140;28;20424;-50
2022/05/23 03:51:37;;;;;;;7.83;4.27;;;11.20;1.00;;;;;;4983433;28;20201;-51
2022/05/23 03:54:03;;;;;;;5.17;4.23;;;11.20;1.00;;;;;;4970958;28;20316;-51
2022/05/23 03:56:29;;;;;;;6.43;4.40;;;11.20;1.00;;;;;;4971233;28;20439;-51
2022/05/23 03:58:55;;;;;;;6.10;4.00;;;11.20;1.00;;;;;;4971166;28;20907;-51
2022/05/23 04:01:24;;;;;;;10.63;4.83;;;11.20;1.00;;;;;;4970912;28;20244;-51
2022/05/23 04:03:49;;;;;;;7.77;4.00;;;11.20;1.00;;;;;;4971425;28;20412;-51
2022/05/23 04:06:15;;;;;;;4.67;4.20;;;11.20;1.00;;;;;;4970668;28;20428;-51
2022/05/23 04:08:41;;;;;;;8.20;4.07;;;11.20;1.00;;;;;;4970542;28;20268;-51
2022/05/23 04:11:07;;;;;;;6.00;4.70;;;11.30;1.00;;;;;;4971222;28;20710;-51
2022/05/23 04:13:33;;;;;;;4.53;3.70;;;11.20;1.00;;;;;;4971197;28;20273;-51
2022/05/23 04:15:58;;;;;;;10.77;5.27;;;11.30;1.00;;;;;;4973689;28;20471;-51
2022/05/23 04:18:24;;;;;;;4.40;4.00;;;11.30;1.00;;;;;;4974509;28;20205;-51
2022/05/23 04:20:50;;;;;;;10.20;4.60;;;11.40;1.00;;;;;;4974259;28;20511;-51
2022/05/23 04:23:16;;;;;;;8.10;4.00;;;11.40;1.00;;;;;;4974357;28;20654;-51
2022/05/23 04:25:45;;;;;;;5.43;3.73;;;11.30;1.00;;;;;;4974439;28;20429;-51
2022/05/23 04:28:12;;;;;;;6.43;4.00;;;11.30;1.00;;;;;;4973995;28;20193;-51
2022/05/23 04:30:38;;;;;;;9.50;3.50;;;11.30;1.00;;;;;;4974098;28;20447;-51
2022/05/23 04:35:54;;;;;;;6.83;4.17;;;11.20;1.00;;;;;;4973945;28;20423;-51
2022/05/23 04:38:19;;;;;;;5.73;3.80;;;11.20;1.00;;;;;;4974006;28;20522;-51
2022/05/23 04:40:46;;;;;;;9.17;4.40;;;11.30;1.00;;;;;;4973810;28;20416;-51
2022/05/23 04:43:12;;;;;;;8.07;3.83;;;11.50;1.00;;;;;;4974260;28;20184;-51
2022/05/23 04:45:38;;;;;;;5.40;3.53;;;11.80;1.00;;;;;;4974114;28;20416;-50
2022/05/23 04:50:48;;;;;;;4.83;3.20;;;12.20;99.90;;;;;;4973979;28;20455;-50
2022/05/23 04:53:14;;;;;;;7.83;3.50;;;12.50;99.90;;;;;;4974017;28;20483;-50
2022/05/23 04:55:41;;;;;;;4.57;3.00;;;12.80;99.90;;;;;;4973863;28;20432;-50
2022/05/23 04:58:08;;;;;;;11.13;3.00;;;13.00;99.90;;;;;;4973613;28;20470;-50
2022/05/23 05:00:34;;;;;;;6.67;2.97;;;13.30;99.90;;;;;;4973577;28;20420;-51
2022/05/23 05:03:00;;;;;;;5.50;3.30;;;13.50;99.90;;;;;;4972355;28;20528;-50
2022/05/23 05:05:27;;;;;;;3.80;3.17;;;13.80;99.90;;;;;;4973695;28;20950;-50
2022/05/23 05:07:54;;;;;;;5.80;3.17;;;14.10;99.90;;;;;;4973253;28;20247;-50
2022/05/23 05:10:23;;;;;;;2.60;2.40;;;14.40;99.90;;;;;;4975686;28;20460;-56
2022/05/23 05:12:50;;;;;;;8.00;3.30;;;14.60;99.90;;;;;;4977402;28;20505;-50
2022/05/23 05:15:16;;;;;;;3.40;2.40;;;14.80;99.90;;;;;;4973761;28;20487;-56
2022/05/23 05:17:41;;;;;;;6.93;2.87;;;14.90;99.90;;;;;;4974742;28;21087;-56
2022/05/23 05:20:08;;;;;;;4.83;3.03;;;14.90;99.90;;;;;;4974988;28;21067;-56
2022/05/23 05:22:35;;;;;;;4.37;2.83;;;14.80;99.90;;;;;;4974911;28;20188;-57
2022/05/23 05:25:02;;;;;;;3.97;2.40;;;14.70;99.90;;;;;;4974679;28;21010;-56
2022/05/23 05:27:29;;;;;;;7.90;3.00;;;14.60;99.90;;;;;;4971734;28;20492;-56
2022/05/23 05:29:55;;;;;;;5.70;2.70;;;14.50;99.90;;;;;;4962173;28;20495;-56
2022/05/23 05:32:25;;;;;;;5.00;2.80;;;14.50;99.90;;;;;;4972161;28;20929;-56
2022/05/23 05:34:57;;;;;;;3.90;2.80;;;14.50;99.90;;;;;;4978432;28;20432;-55
2022/05/23 05:37:33;;;;;;;7.40;2.70;;;14.60;99.90;;;;;;4973962;28;20882;-56
2022/05/23 05:40:02;;;;;;;7.30;2.80;;;14.90;99.90;;;;;;4971619;28;21192;-55
2022/05/23 05:42:38;;;;;;;6.10;2.70;;;15.20;99.90;;;;;;4974285;28;20460;-55
2022/05/23 05:45:22;;;;;;;3.23;2.33;;;15.50;99.90;;;;;;4974175;28;20462;-56
2022/05/23 05:47:49;;;;;;;4.70;2.87;;;15.90;99.90;;;;;;4973072;28;20445;-55
2022/05/23 05:50:24;;;;;;;3.23;2.27;;;16.10;99.90;;;;;;4974408;28;20432;-55
2022/05/23 05:52:52;;;;;;;6.97;2.33;;;16.10;99.90;;;;;;4974207;28;20416;-56
2022/05/23 05:55:18;;;;;;;5.43;2.40;;;16.10;99.90;;;;;;4974285;28;20531;-55
2022/05/23 05:57:43;;;;;;;3.97;2.50;;;16.30;99.90;;;;;;4974221;28;20917;-55
2022/05/23 06:00:10;;;;;;;4.90;2.10;;;16.50;99.90;;;;;;4972902;28;20212;-56
2022/05/23 06:02:36;;;;;;;4.80;2.20;;;16.70;99.90;;;;;;4974100;28;20662;-55
2022/05/23 06:05:03;;;;;;;6.40;2.50;;;16.90;99.90;;;;;;4974157;28;20436;-57
2022/05/23 06:13:19;;;;;;;3.93;2.10;;;17.60;99.90;;;;;;4924276;29;20994;-55
2022/05/23 06:15:45;;;;;;;2.23;1.90;;;17.90;99.90;;;;;;4947301;28;20452;-54
2022/05/23 06:18:11;;;;;;;4.10;1.80;;;18.10;99.90;;;;;;4971914;28;20209;-54
2022/05/23 06:20:37;;;;;;;4.43;1.70;;;18.30;99.90;;;;;;4971874;28;20813;-55
2022/05/23 06:23:04;;;;;;;6.40;2.10;;;18.30;99.90;;;;;;4972032;28;20436;-54
2022/05/23 06:25:30;;;;;;;7.03;2.17;;;18.10;99.90;;;;;;4972122;28;20490;-55
2022/05/23 06:27:56;;;;;;;6.20;2.23;;;18.00;99.90;;;;;;4971977;28;20427;-55
2022/05/23 06:30:22;;;;;;;5.03;1.97;;;18.10;99.90;;;;;;4972299;28;20802;-55
2022/05/23 06:32:47;;;;;;;6.37;2.00;;;18.20;99.90;;;;;;4972032;28;20200;-54
2022/05/23 06:35:14;;;;;;;5.37;1.50;;;18.30;99.90;;;;;;4971618;28;20436;-54
2022/05/23 06:37:41;;;;;;;4.33;1.60;;;18.40;99.90;;;;;;4974161;28;20299;-54
2022/05/23 06:40:10;;;;;;;4.73;2.07;;;18.50;99.90;;;;;;4971780;28;20428;-54
2022/05/23 06:42:36;;;;;;;4.40;1.80;;;18.60;99.90;;;;;;4974128;28;20527;-55
2022/05/23 06:45:04;;;;;;;3.07;2.20;;;18.60;99.90;;;;;;4971981;28;20440;-55
2022/05/23 06:47:29;;;;;;;3.47;1.80;;;18.70;99.90;;;;;;4975398;28;20506;-54
2022/05/23 06:49:55;;;;;;;6.87;2.37;;;18.80;99.90;;;;;;4972103;28;20424;-53
2022/05/23 06:52:21;;;;;;;4.43;1.63;;;18.90;99.90;;;;;;4972059;28;20204;-53
2022/05/23 06:54:46;;;;;;;3.80;2.03;;;18.90;99.90;;;;;;4972105;28;20243;-55
2022/05/23 06:57:12;;;;;;;4.70;1.97;;;18.90;99.90;;;;;;4976229;28;20941;-55
2022/05/23 06:59:38;;;;;;;6.90;2.20;;;18.90;99.90;;;;;;4972002;28;20328;-54
2022/05/23 07:02:06;;;;;;;8.33;2.30;;;19.30;99.90;;;;;;4972038;28;20185;-55
2022/05/23 07:12:45;;;;;;;6.37;2.30;;;20.20;99.90;;;;;;4971842;28;20435;-56
2022/05/23 07:15:10;;;;;;;2.67;1.90;;;19.90;99.90;;;;;;4971766;28;20456;-54
2022/05/23 07:17:36;;;;;;;6.10;1.83;;;19.50;99.90;;;;;;4971566;28;21047;-55
2022/05/23 07:20:02;;;;;;;3.40;1.70;;;19.50;99.90;;;;;;4971810;28;20230;-54
2022/05/23 07:22:27;;;;;;;7.67;1.87;;;19.60;99.90;;;;;;4971286;28;20193;-55
2022/05/23 07:24:53;;;;;;;3.10;1.90;;;19.90;99.90;;;;;;4972321;28;20239;-55
2022/05/23 07:27:26;;;;;;;2.70;2.10;;;19.90;99.90;;;;;;4971704;28;20549;-54
2022/05/23 07:29:51;;;;;;;3.93;2.47;;;20.10;99.90;;;;;;4970985;28;20440;-55
2022/05/23 07:32:17;;;;;;;3.90;1.70;;;20.50;99.90;;;;;;4971154;28;20984;-54
2022/05/23 07:34:44;;;;;;;4.00;2.23;;;20.70;99.90;;;;;;4971087;28;20197;-54
2022/05/23 07:37:10;;;;;;;4.00;2.20;;;20.70;99.90;;;;;;4971268;28;20583;-55
2022/05/23 07:39:37;;;;;;;8.70;1.90;;;20.90;99.90;;;;;;4971562;28;20451;-55
2022/05/23 07:42:03;;;;;;;4.07;1.70;;;21.10;99.90;;;;;;4971779;28;20436;-53
2022/05/23 07:44:29;;;;;;;2.20;1.97;;;21.40;99.90;;;;;;4970937;28;20962;-54
2022/05/23 07:46:56;;;;;;;7.33;1.90;;;21.70;99.90;;;;;;4971751;28;20444;-54
2022/05/23 07:49:21;;;;;;;6.07;2.60;;;22.00;99.90;;;;;;4979224;28;20279;-53
2022/05/23 07:51:47;;;;;;;7.13;2.23;;;22.40;99.90;;;;;;4975276;28;20439;-55
2022/05/23 08:02:25;;;;;;;4.33;2.23;;;22.80;99.90;;;;;;4975827;28;20414;-54
2022/05/23 08:04:50;;;;;;;10.50;2.00;;;22.80;99.90;;;;;;4974827;28;20809;-52
2022/05/23 08:07:16;;;;;;;7.07;2.60;;;23.00;99.90;;;;;;4973176;28;20235;-53
2022/05/23 08:09:41;;;;;;;3.00;1.80;;;23.20;99.90;;;;;;4975208;28;20196;-54
2022/05/23 08:12:09;;;;;;;5.03;2.23;;;23.20;99.90;;;;;;4974601;28;20200;-54
2022/05/23 08:14:34;;;;;;;5.30;2.03;;;23.00;99.90;;;;;;4978003;28;20189;-53
2022/05/23 08:17:00;;;;;;;8.70;2.17;;;23.00;99.90;;;;;;4968059;28;20474;-54
2022/05/23 08:19:25;;;;;;;6.20;2.03;;;23.10;99.90;;;;;;4974482;28;20652;-53
2022/05/23 08:21:55;;;;;;;4.90;2.00;;;23.40;99.90;;;;;;4974411;28;20228;-53
2022/05/23 08:24:21;;;;;;;2.60;1.80;;;23.60;99.90;;;;;;4974638;28;20511;-54
2022/05/23 08:26:47;;;;;;;3.20;2.10;;;23.80;99.90;;;;;;4974485;28;20559;-54
2022/05/23 08:29:13;;;;;;;3.67;2.10;;;23.90;99.90;;;;;;4975646;28;20416;-54
2022/05/23 08:31:40;;;;;;;6.10;1.97;;;24.20;99.90;;;;;;4974439;28;20494;-55
2022/05/23 08:34:06;;;;;;;4.87;2.07;;;24.40;99.90;;;;;;4974210;28;20743;-55
2022/05/23 08:36:32;;;;;;;7.23;2.33;;;24.60;99.90;;;;;;4973999;28;20424;-54
2022/05/23 08:38:58;;;;;;;2.63;1.80;;;24.90;99.90;;;;;;4976220;28;20482;-53
2022/05/23 08:41:35;;;;;;;4.40;2.10;;;25.20;99.90;;;;;;4973742;28;20428;-54
2022/05/23 08:44:15;;;;;;;4.83;1.83;;;25.30;99.90;;;;;;4973665;28;20428;-52
2022/05/23 08:46:41;;;;;;;5.47;2.10;;;25.30;99.90;;;;;;4975326;28;20427;-55
2022/05/23 08:49:24;;;;;;;5.73;1.80;;;25.10;99.90;;;;;;4983531;28;20435;-55
2022/05/23 08:52:18;;;;;;;2.77;1.90;;;25.30;99.90;;;;;;4972503;28;20590;-57
2022/05/23 08:55:08;;;;;;;3.73;2.30;;;25.60;99.90;;;;;;4972265;28;20754;-54
2022/05/23 08:57:51;;;;;;;3.90;2.20;;;25.80;99.90;;;;;;4973772;28;20516;-54
2022/05/23 09:00:25;;;;;;;5.50;2.27;;;26.20;99.90;;;;;;4973499;28;20442;-54
2022/05/23 09:02:55;;;;;;;3.47;2.30;;;26.40;99.90;;;;;;4973107;28;20439;-54
2022/05/23 09:05:49;;;;;;;2.23;1.70;;;26.30;99.90;;;;;;4965828;28;20472;-54
2022/05/23 09:08:19;;;;;;;3.07;1.97;;;26.30;99.90;;;;;;4953834;28;20890;-55
2022/05/23 09:10:58;;;;;;;5.77;1.73;;;26.30;99.90;;;;;;4973791;28;20476;-55
2022/05/23 09:13:27;;;;;;;4.40;1.80;;;26.60;99.90;;;;;;4971791;28;20444;-50
2022/05/23 09:15:59;;;;;;;7.27;1.90;;;26.40;99.90;;;;;;4953865;28;20444;-49
2022/05/23 09:18:33;;;;;;;4.53;2.00;;;26.60;99.90;;;;;;4973473;28;20558;-50
2022/05/23 09:21:04;;;;;;;6.17;2.20;;;26.80;99.90;;;;;;4973434;28;20543;-50
2022/05/23 09:23:38;;;;;;;3.87;2.10;;;27.30;99.90;;;;;;4973456;28;20437;-50
2022/05/23 09:26:13;;;;;;;2.83;2.00;;;27.60;99.90;;;;;;4973110;28;20428;-50
2022/05/23 09:28:39;;;;;;;6.23;2.30;;;27.60;99.90;;;;;;4972903;28;20447;-49
2022/05/23 09:31:17;;;;;;;9.60;2.30;;;27.30;99.90;;;;;;4972809;28;20437;-50
2022/05/23 09:33:50;;;;;;;4.70;1.80;;;27.10;99.90;;;;;;4973030;28;20428;-50
2022/05/23 09:36:19;;;;;;;7.07;2.00;;;27.10;99.90;;;;;;4981097;28;20452;-50
2022/05/23 09:38:51;;;;;;;4.20;1.97;;;27.20;99.90;;;;;;4965667;28;20452;-50
2022/05/23 09:49:52;;;;;;;3.33;2.00;;;27.10;99.90;;;;;;4972556;28;20443;-50
2022/05/23 09:52:28;;;;;;;5.10;2.37;;;27.50;99.90;;;;;;4972826;28;20428;-51
2022/05/23 09:54:57;;;;;;;4.00;2.07;;;27.60;99.90;;;;;;4973228;28;20192;-51
2022/05/23 09:57:26;;;;;;;6.50;2.27;;;27.60;99.90;;;;;;4972500;28;20488;-51
2022/05/23 10:00:17;;;;;;;3.40;2.00;;;27.70;99.90;;;;;;4972616;28;21274;-50
2022/05/23 10:02:51;;;;;;;2.27;2.07;;;27.50;99.90;;;;;;4972692;28;20421;-50
2022/05/23 10:05:38;;;;;;;4.53;2.40;;;27.30;99.90;;;;;;4972712;28;20432;-51
2022/05/23 10:08:09;;;;;;;7.03;2.50;;;27.10;99.90;;;;;;4971273;28;20484;-51
2022/05/23 10:10:51;;;;;;;3.47;2.20;;;27.10;99.90;;;;;;4972453;28;20502;-50
2022/05/23 10:13:19;;;;;;;3.97;2.20;;;27.10;99.90;;;;;;4968590;28;20436;-50
2022/05/23 10:15:53;;;;;;;6.07;2.57;;;27.10;99.90;;;;;;4972368;28;20458;-51
2022/05/23 10:18:46;;;;;;;4.60;2.10;;;27.40;99.90;;;;;;4972450;28;20842;-50
2022/05/23 10:21:32;;;;;;;3.53;2.20;;;27.80;99.90;;;;;;4964627;28;20444;-52
2022/05/23 10:24:08;;;;;;;4.53;2.40;;;28.00;99.90;;;;;;4968461;28;20546;-50
2022/05/23 10:26:51;;;;;;;3.57;2.53;;;28.00;99.90;;;;;;4968779;28;20433;-50
2022/05/23 10:29:35;;;;;;;5.37;2.20;;;28.10;99.90;;;;;;4971702;28;20486;-51
2022/05/23 10:32:07;;;;;;;5.90;2.80;;;28.20;99.90;;;;;;4964425;28;20443;-50
2022/05/23 10:34:40;;;;;;;4.23;2.47;;;28.00;99.90;;;;;;4971849;28;20754;-50
2022/05/23 10:37:14;;;;;;;2.90;2.60;;;28.20;99.90;;;;;;4964727;28;20475;-51
2022/05/23 10:42:55;;;;;;;4.90;2.60;;;28.20;99.90;;;;;;4976371;28;20587;-51
2022/05/23 10:45:33;;;;;;;2.40;2.20;;;28.40;99.90;;;;;;4963880;28;21200;-52
2022/05/23 10:48:07;;;;;;;3.73;2.50;;;28.40;99.90;;;;;;4972019;28;20471;-51
2022/05/23 10:50:47;;;;;;;5.27;2.90;;;28.20;99.90;;;;;;4971860;28;20429;-51
2022/05/23 10:53:41;;;;;;;9.50;2.50;;;28.40;99.90;;;;;;4971903;28;20435;-51
2022/05/23 10:56:33;;;;;;;4.20;2.63;;;28.70;99.90;;;;;;4971361;28;20873;-51
2022/05/23 10:59:22;;;;;;;6.23;2.40;;;28.70;99.90;;;;;;4965761;28;21028;-51
2022/05/23 11:02:09;;;;;;;4.70;2.90;;;28.70;99.90;;;;;;4970079;28;20440;-51
2022/05/23 11:05:03;;;;;;;4.00;2.20;;;29.10;99.90;;;;;;4971433;28;20420;-51
2022/05/23 11:07:57;;;;;;;5.27;2.40;;;29.40;99.90;;;;;;4973537;28;20514;-52
2022/05/23 11:11:07;;;;;;;4.20;2.47;;;29.10;99.90;;;;;;4971911;28;20436;-52
2022/05/23 11:13:50;;;;;;;6.53;2.87;;;28.90;99.90;;;;;;4937952;29;20719;-51
2022/05/23 11:16:36;;;;;;;3.97;2.60;;;29.10;99.90;;;;;;4971064;28;20444;-52
2022/05/23 11:19:22;;;;;;;4.43;2.60;;;29.50;99.90;;;;;;4966029;28;20908;-52
2022/05/23 11:22:02;;;;;;;5.67;2.67;;;29.30;99.90;;;;;;4971533;28;20528;-51
2022/05/23 11:24:44;;;;;;;2.93;2.20;;;29.10;99.90;;;;;;4972161;28;20459;-51
2022/05/23 11:35:48;;;;;;;7.40;3.70;;;29.10;99.90;;;;;;4975073;28;20493;-52
2022/05/23 11:38:19;;;;;;;6.13;2.60;;;29.40;99.90;;;;;;4971734;28;21108;-52
2022/05/23 11:41:08;;;;;;;4.90;2.73;;;29.60;99.90;;;;;;4975164;28;20443;-52
2022/05/23 11:43:34;;;;;;;5.60;2.30;;;29.50;99.90;;;;;;4973848;28;20480;-53
2022/05/23 11:46:03;;;;;;;5.40;2.47;;;29.10;99.90;;;;;;4976900;28;20552;-53
2022/05/23 11:48:34;;;;;;;6.63;2.50;;;29.00;99.90;;;;;;4974835;28;20451;-52
2022/05/23 11:51:25;;;;;;;7.43;2.67;;;29.30;99.90;;;;;;4975104;28;20435;-52
2022/05/23 11:53:58;;;;;;;3.93;2.60;;;29.40;99.90;;;;;;4971177;28;20944;-52
2022/05/23 11:57:10;;;;;;;6.73;2.87;;;29.30;99.90;;;;;;4974825;28;20425;-51
2022/05/23 11:59:35;;;;;;;5.10;3.17;;;29.30;99.90;;;;;;4974730;28;20785;-52
2022/05/23 12:02:06;;;;;;;4.07;2.50;;;29.10;99.90;;;;;;4974741;28;20424;-53
2022/05/23 12:04:57;;;;;;;2.90;2.40;;;29.10;99.90;;;;;;4980076;28;20192;-53
2022/05/23 12:07:31;;;;;;;5.50;2.50;;;29.30;99.90;;;;;;4969546;28;20494;-51
2022/05/23 12:10:21;;;;;;;4.63;2.57;;;29.30;99.90;;;;;;4971313;28;20450;-54
2022/05/23 12:12:48;;;;;;;3.27;2.57;;;29.40;99.90;;;;;;4974613;28;20416;-53
2022/05/23 12:15:48;;;;;;;10.17;2.47;;;28.80;99.90;;;;;;4974487;28;20436;-53
2022/05/23 12:18:23;;;;;;;5.90;2.87;;;29.10;99.90;;;;;;4974123;28;20951;-55
2022/05/23 12:20:55;;;;;;;3.37;2.60;;;29.00;99.90;;;;;;4973700;28;20518;-52
2022/05/23 12:23:42;;;;;;;5.03;2.27;;;29.00;99.90;;;;;;4971311;28;20460;-54
2022/05/23 12:26:11;;;;;;;5.90;2.77;;;28.90;99.90;;;;;;4973414;28;21056;-54
2022/05/23 12:28:53;;;;;;;7.47;2.73;;;29.40;99.90;;;;;;4974522;28;20420;-55
2022/05/23 12:31:25;;;;;;;8.03;2.50;;;29.80;99.90;;;;;;4980145;28;20483;-53
2022/05/23 12:34:07;;;;;;;6.00;2.80;;;29.90;99.90;;;;;;4974895;28;20462;-55
2022/05/23 12:36:36;;;;;;;5.17;2.80;;;30.00;99.90;;;;;;4978909;28;20443;-56
2022/05/23 12:39:32;;;;;;;7.83;3.03;;;30.20;99.90;;;;;;4968733;28;20935;-54
2022/05/23 12:42:14;;;;;;;6.80;2.73;;;29.70;99.90;;;;;;4973776;28;20443;-53
2022/05/23 12:44:54;;;;;;;5.00;2.53;;;29.10;99.90;;;;;;4973697;28;20430;-55
2022/05/23 12:47:38;;;;;;;4.20;2.37;;;29.20;99.90;;;;;;4973481;28;20412;-55
2022/05/23 12:50:38;;;;;;;5.77;2.87;;;29.50;99.90;;;;;;4976826;28;20420;-54
2022/05/23 12:53:28;;;;;;;5.23;2.77;;;29.90;99.90;;;;;;4979242;28;20474;-55
2022/05/23 12:56:36;;;;;;;3.03;2.40;;;29.80;99.90;;;;;;4973953;28;20528;-55
2022/05/23 12:59:24;;;;;;;4.87;2.53;;;29.80;99.90;;;;;;4965150;28;20480;-54
2022/05/23 13:01:56;;;;;;;6.73;2.90;;;29.60;99.90;;;;;;4965818;28;20444;-54
2022/05/23 13:04:34;;;;;;;4.83;2.70;;;29.40;99.90;;;;;;4973455;28;20432;-54
2022/05/23 13:07:13;;;;;;;5.23;2.63;;;29.50;99.90;;;;;;4973742;28;20432;-55
2022/05/23 13:09:51;;;;;;;6.47;2.60;;;30.00;99.90;;;;;;4975916;28;20519;-54
2022/05/23 13:12:29;;;;;;;4.53;2.70;;;30.40;99.90;;;;;;4973632;28;20995;-55
2022/05/23 13:14:57;;;;;;;5.63;2.70;;;30.60;99.90;;;;;;4973727;28;20436;-55
2022/05/23 13:17:29;;;;;;;4.93;2.83;;;30.60;99.90;;;;;;4973369;28;20468;-55
2022/05/23 13:22:39;;;;;;;8.23;2.70;;;30.60;99.90;;;;;;4973042;28;20431;-53
2022/05/23 13:25:05;;;;;;;6.00;2.40;;;30.20;99.90;;;;;;4973431;28;20440;-56
2022/05/23 13:27:39;;;;;;;2.60;2.40;;;30.00;99.90;;;;;;4972877;28;20192;-54
2022/05/23 13:30:19;;;;;;;4.80;2.47;;;29.60;99.90;;;;;;4970936;28;20948;-55
2022/05/23 13:33:18;;;;;;;6.70;2.60;;;29.60;99.90;;;;;;4971390;28;20455;-55
2022/05/23 13:35:46;;;;;;;5.70;2.90;;;30.00;99.90;;;;;;4967595;28;20898;-54
2022/05/23 13:38:18;;;;;;;5.30;2.63;;;30.40;99.90;;;;;;4972673;28;20568;-53
2022/05/23 13:40:46;;;;;;;7.10;2.80;;;30.40;99.90;;;;;;4973311;28;20436;-55
2022/05/23 13:43:15;;;;;;;3.00;2.60;;;30.30;99.90;;;;;;4974830;28;20527;-55
2022/05/23 13:45:42;;;;;;;5.40;2.60;;;29.90;99.90;;;;;;4972436;28;20432;-56
2022/05/23 13:48:16;;;;;;;3.70;2.60;;;29.90;99.90;;;;;;4970913;28;20443;-54
2022/05/23 13:50:47;;;;;;;4.77;2.80;;;29.60;99.90;;;;;;4975041;28;20447;-54
2022/05/23 13:53:25;;;;;;;3.97;2.50;;;29.40;99.90;;;;;;4972553;28;20458;-54
2022/05/23 13:55:51;;;;;;;5.13;2.93;;;29.20;99.90;;;;;;4976708;28;20431;-54
2022/05/23 13:58:27;;;;;;;8.70;2.70;;;29.30;99.90;;;;;;4971687;28;20954;-55
2022/05/23 14:00:56;;;;;;;7.13;2.87;;;29.50;99.90;;;;;;4968632;28;20412;-55
2022/05/23 14:03:46;;;;;;;7.20;2.17;;;29.40;99.90;;;;;;4971634;28;20440;-55
2022/05/23 14:06:15;;;;;;;3.60;2.80;;;29.10;99.90;;;;;;4971832;28;20442;-53
2022/05/23 14:08:45;;;;;;;7.60;2.80;;;29.20;99.90;;;;;;4971569;28;20815;-53
2022/05/23 14:11:23;;;;;;;3.30;2.43;;;29.30;99.90;;;;;;4972202;28;20448;-52
2022/05/23 14:13:52;;;;;;;5.43;2.83;;;29.20;99.90;;;;;;4975584;28;20548;-55
2022/05/23 14:16:19;;;;;;;6.10;2.80;;;29.00;99.90;;;;;;4971755;28;20950;-55